createdAt,value
2023-04-07T00:03:35.945Z,101480.26
2023-04-07T00:06:04.392Z,101480.16
2023-04-07T00:08:32.890Z,101478.49
2023-04-07T00:11:01.220Z,101478.81
2023-04-07T00:13:30.609Z,101479.44
2023-04-07T00:15:59.070Z,101478.29
2023-04-07T00:18:27.469Z,101476.79
2023-04-07T00:20:56.072Z,101479.61
2023-04-07T00:23:24.687Z,101478.70
2023-04-07T00:25:52.983Z,101476.49
2023-04-07T00:28:21.099Z,101476.75
2023-04-07T00:30:49.118Z,101472.02
2023-04-07T00:33:17.889Z,101470.05
2023-04-07T00:35:46.824Z,101469.48
2023-04-07T00:38:15.516Z,101468.49
2023-04-07T00:40:44.125Z,101469.33
2023-04-07T00:43:12.684Z,101463.59
2023-04-07T00:45:41.216Z,101458.70
2023-04-07T00:48:10.792Z,101457.74
2023-04-07T00:50:39.446Z,101461.23
2023-04-07T00:53:08.791Z,101463.23
2023-04-07T00:55:37.148Z,101460.73
2023-04-07T00:58:05.694Z,101458.05
2023-04-07T01:00:43.249Z,101451.94
2023-04-07T01:03:20.983Z,101453.63
2023-04-07T01:05:58.850Z,101450.20
2023-04-07T01:08:33.764Z,101449.83
2023-04-07T01:11:20.836Z,101447.63
2023-04-07T01:13:54.257Z,101448.13
2023-04-07T01:16:36.376Z,101448.07
2023-04-07T01:19:16.029Z,101445.33
2023-04-07T01:21:48.485Z,101446.11
2023-04-07T01:24:25.548Z,101441.44
2023-04-07T01:27:05.703Z,101442.77
2023-04-07T01:29:39.352Z,101440.55
2023-04-07T01:32:14.324Z,101431.85
2023-04-07T01:34:45.647Z,101433.45
2023-04-07T01:37:16.174Z,101433.36
2023-04-07T01:39:44.773Z,101431.30
2023-04-07T01:42:15.516Z,101429.66
2023-04-07T01:44:45.914Z,101425.48
2023-04-07T01:47:16.726Z,101424.24
2023-04-07T01:49:47.268Z,101425.14
2023-04-07T01:52:16.886Z,101421.17
2023-04-07T01:54:47.414Z,101421.06
2023-04-07T01:57:15.433Z,101415.83
2023-04-07T01:59:44.465Z,101416.48
2023-04-07T02:02:13.294Z,101415.72
2023-04-07T02:05:09.763Z,101416.41
2023-04-07T02:07:46.841Z,101408.96
2023-04-07T02:10:17.550Z,101411.38
2023-04-07T02:12:47.695Z,101412.91
2023-04-07T02:15:16.869Z,101418.50
2023-04-07T02:17:53.675Z,101409.94
2023-04-07T02:20:23.959Z,101407.08
2023-04-07T02:22:52.084Z,101406.49
2023-04-07T02:25:29.006Z,101405.02
2023-04-07T02:27:59.147Z,101404.85
2023-04-07T02:30:28.508Z,101403.88
2023-04-07T02:32:56.846Z,101402.48
2023-04-07T02:35:25.129Z,101400.61
2023-04-07T02:37:54.522Z,101397.69
2023-04-07T02:40:23.232Z,101394.79
2023-04-07T02:42:51.755Z,101397.98
2023-04-07T02:45:19.914Z,101397.94
2023-04-07T02:47:48.361Z,101396.84
2023-04-07T02:50:16.988Z,101394.31
2023-04-07T02:52:45.291Z,101394.09
2023-04-07T02:55:15.394Z,101392.63
2023-04-07T02:57:43.605Z,101394.12
2023-04-07T03:00:12.674Z,101392.21
2023-04-07T03:02:42.404Z,101396.36
2023-04-07T03:05:10.536Z,101391.63
2023-04-07T03:07:38.535Z,101391.16
2023-04-07T03:10:07.821Z,101386.52
2023-04-07T03:12:36.012Z,101384.89
2023-04-07T03:15:05.436Z,101388.17
2023-04-07T03:17:35.215Z,101389.56
2023-04-07T03:20:03.344Z,101386.27
2023-04-07T03:22:31.494Z,101385.85
2023-04-07T03:24:59.616Z,101385.95
2023-04-07T03:27:29.450Z,101383.23
2023-04-07T03:29:58.141Z,101383.77
2023-04-07T03:32:26.891Z,101385.13
2023-04-07T03:34:55.534Z,101383.83
2023-04-07T03:37:23.875Z,101387.00
2023-04-07T03:39:53.517Z,101383.73
2023-04-07T03:42:22.556Z,101381.73
2023-04-07T03:44:51.304Z,101381.00
2023-04-07T03:47:19.880Z,101378.39
2023-04-07T03:49:48.453Z,101376.34
2023-04-07T03:52:17.231Z,101376.98
2023-04-07T03:54:45.420Z,101379.73
2023-04-07T03:57:14.068Z,101376.64
2023-04-07T03:59:42.217Z,101371.61
2023-04-07T04:02:11.971Z,101374.25
2023-04-07T04:04:41.765Z,101372.32
2023-04-07T04:07:10.037Z,101375.27
2023-04-07T04:09:38.208Z,101372.34
2023-04-07T04:12:06.501Z,101370.05
2023-04-07T04:14:35.640Z,101370.52
2023-04-07T04:17:05.973Z,101370.15
2023-04-07T04:19:35.584Z,101368.00
2023-04-07T04:22:04.370Z,101368.34
2023-04-07T04:24:33.358Z,101366.02
2023-04-07T04:27:01.585Z,101365.14
2023-04-07T04:29:31.163Z,101368.46
2023-04-07T04:32:01.476Z,101366.81
2023-04-07T04:34:29.477Z,101364.64
2023-04-07T04:36:59.018Z,101368.48
2023-04-07T04:39:27.258Z,101366.66
2023-04-07T04:41:56.586Z,101363.61
2023-04-07T04:44:24.817Z,101363.39
2023-04-07T04:46:53.910Z,101361.45
2023-04-07T04:49:22.231Z,101361.92
2023-04-07T04:51:51.097Z,101362.21
2023-04-07T04:54:20.032Z,101362.90
2023-04-07T04:56:48.461Z,101367.83
2023-04-07T04:59:16.495Z,101368.66
2023-04-07T05:01:45.160Z,101370.56
2023-04-07T05:04:14.319Z,101371.09
2023-04-07T05:06:42.598Z,101373.21
2023-04-07T05:09:10.874Z,101371.96
2023-04-07T05:11:41.930Z,101375.77
2023-04-07T05:14:10.661Z,101380.23
2023-04-07T05:16:38.853Z,101381.20
2023-04-07T05:19:07.256Z,101385.21
2023-04-07T05:21:36.117Z,101386.81
2023-04-07T05:24:04.615Z,101386.22
2023-04-07T05:26:35.882Z,101389.63
2023-04-07T05:29:04.498Z,101393.60
2023-04-07T05:31:32.849Z,101392.51
2023-04-07T05:34:00.923Z,101394.71
2023-04-07T05:36:28.989Z,101391.61
2023-04-07T05:38:57.278Z,101394.54
2023-04-07T05:41:25.310Z,101398.08
2023-04-07T05:43:53.513Z,101400.18
2023-04-07T05:46:22.385Z,101400.64
2023-04-07T05:48:50.392Z,101406.39
2023-04-07T05:51:18.563Z,101408.92
2023-04-07T05:53:48.034Z,101410.30
2023-04-07T05:56:16.271Z,101413.36
2023-04-07T05:58:44.374Z,101411.13
2023-04-07T06:01:12.529Z,101414.34
2023-04-07T06:03:41.763Z,101413.31
2023-04-07T06:06:10.411Z,101418.45
2023-04-07T06:08:39.153Z,101419.56
2023-04-07T06:11:07.649Z,101424.45
2023-04-07T06:13:36.648Z,101422.23
2023-04-07T06:16:05.618Z,101423.02
2023-04-07T06:18:34.056Z,101428.62
2023-04-07T06:21:03.246Z,101426.83
2023-04-07T06:23:32.138Z,101432.85
2023-04-07T06:26:00.308Z,101436.50
2023-04-07T06:28:28.843Z,101437.02
2023-04-07T06:30:58.276Z,101436.40
2023-04-07T06:33:27.605Z,101440.26
2023-04-07T06:35:57.122Z,101435.30
2023-04-07T06:38:25.747Z,101437.99
2023-04-07T06:40:53.951Z,101433.60
2023-04-07T06:43:22.278Z,101437.03
2023-04-07T06:45:51.271Z,101437.48
2023-04-07T06:48:20.209Z,101442.67
2023-04-07T06:50:52.528Z,101447.56
2023-04-07T06:53:20.912Z,101444.55
2023-04-07T06:55:48.902Z,101443.17
2023-04-07T06:58:17.975Z,101446.69
2023-04-07T07:00:46.563Z,101450.90
2023-04-07T07:03:18.620Z,101450.59
2023-04-07T07:05:50.366Z,101452.64
2023-04-07T07:08:18.529Z,101456.76
2023-04-07T07:10:47.276Z,101457.39
2023-04-07T07:13:15.796Z,101459.30
2023-04-07T07:15:43.848Z,101463.02
2023-04-07T07:18:12.860Z,101465.30
2023-04-07T07:20:41.753Z,101470.64
2023-04-07T07:23:10.125Z,101468.13
2023-04-07T07:25:38.426Z,101471.67
2023-04-07T07:28:06.712Z,101473.42
2023-04-07T07:30:35.490Z,101478.05
2023-04-07T07:33:03.893Z,101477.80
2023-04-07T07:35:32.874Z,101481.89
2023-04-07T07:38:01.457Z,101479.52
2023-04-07T07:40:30.272Z,101480.00
2023-04-07T07:43:01.952Z,101476.54
2023-04-07T07:45:30.653Z,101476.80
2023-04-07T07:47:58.822Z,101475.81
2023-04-07T07:50:27.908Z,101472.30
2023-04-07T07:52:56.886Z,101473.27
2023-04-07T07:55:26.479Z,101471.33
2023-04-07T07:57:54.955Z,101470.48
2023-04-07T08:00:23.510Z,101468.92
2023-04-07T08:02:52.548Z,101469.30
2023-04-07T08:05:21.394Z,101473.27
2023-04-07T08:07:49.489Z,101469.70
2023-04-07T08:10:18.223Z,101473.30
2023-04-07T08:12:46.929Z,101477.08
2023-04-07T08:15:15.611Z,101477.80
2023-04-07T08:17:44.349Z,101474.41
2023-04-07T08:20:13.378Z,101472.65
2023-04-07T08:22:42.209Z,101476.06
2023-04-07T08:25:12.013Z,101474.62
2023-04-07T08:27:40.379Z,101476.77
2023-04-07T08:30:08.652Z,101475.88
2023-04-07T08:32:41.824Z,101469.97
2023-04-07T08:35:11.383Z,101474.98
2023-04-07T08:37:40.967Z,101472.66
2023-04-07T08:40:10.797Z,101471.77
2023-04-07T08:42:43.199Z,101476.42
2023-04-07T08:45:13.140Z,101475.52
2023-04-07T08:47:42.443Z,101474.81
2023-04-07T08:50:12.363Z,101475.70
2023-04-07T08:52:53.941Z,101476.76
2023-04-07T08:55:22.785Z,101479.44
2023-04-07T08:57:53.025Z,101476.36
2023-04-07T09:00:22.420Z,101479.41
2023-04-07T09:02:52.573Z,101478.86
2023-04-07T09:05:22.989Z,101478.63
2023-04-07T09:07:51.269Z,101481.31
2023-04-07T09:10:20.022Z,101485.80
2023-04-07T09:12:48.338Z,101485.09
2023-04-07T09:15:17.589Z,101485.09
2023-04-07T09:17:47.093Z,101487.42
2023-04-07T09:20:16.179Z,101486.15
2023-04-07T09:22:45.351Z,101489.73
2023-04-07T09:25:18.545Z,101491.00
2023-04-07T09:28:01.593Z,101494.08
2023-04-07T09:30:33.205Z,101494.59
2023-04-07T09:33:02.321Z,101494.74
2023-04-07T09:35:31.093Z,101496.13
2023-04-07T09:38:04.115Z,101493.95
2023-04-07T09:40:32.864Z,101495.74
2023-04-07T09:43:03.140Z,101495.43
2023-04-07T09:45:35.203Z,101497.33
2023-04-07T09:48:07.343Z,101493.48
2023-04-07T09:50:41.732Z,101497.94
2023-04-07T09:53:12.097Z,101494.53
2023-04-07T09:55:40.876Z,101497.57
2023-04-07T09:58:12.959Z,101495.95
2023-04-07T10:00:42.030Z,101491.66
2023-04-07T10:03:10.665Z,101494.37
2023-04-07T10:05:39.457Z,101491.19
2023-04-07T10:08:08.469Z,101488.67
2023-04-07T10:10:41.929Z,101488.26
2023-04-07T10:13:10.937Z,101490.49
2023-04-07T10:15:39.818Z,101490.15
2023-04-07T10:18:10.985Z,101481.62
2023-04-07T10:20:41.067Z,101480.73
2023-04-07T10:23:51.374Z,101480.52
2023-04-07T10:26:23.487Z,101478.70
2023-04-07T10:29:09.453Z,101475.73
2023-04-07T10:31:39.654Z,101473.04
2023-04-07T10:34:08.090Z,101467.30
2023-04-07T10:37:12.260Z,101464.13
2023-04-07T10:39:41.031Z,101462.57
2023-04-07T10:42:37.823Z,101464.30
2023-04-07T10:45:10.436Z,101463.05
2023-04-07T10:48:11.625Z,101459.70
2023-04-07T10:50:40.136Z,101456.98
2023-04-07T10:53:10.667Z,101449.55
2023-04-07T10:55:46.893Z,101453.17
2023-04-07T10:58:29.188Z,101450.02
2023-04-07T11:01:06.153Z,101449.29
2023-04-07T11:03:38.114Z,101448.50
2023-04-07T11:06:08.113Z,101451.63
2023-04-07T11:08:41.531Z,101453.75
2023-04-07T11:11:15.377Z,101455.00
2023-04-07T11:13:46.371Z,101450.90
2023-04-07T11:16:20.291Z,101449.45
2023-04-07T11:18:48.916Z,101446.95
2023-04-07T11:21:20.188Z,101441.89
2023-04-07T11:23:49.245Z,101444.67
2023-04-07T11:26:18.274Z,101442.22
2023-04-07T11:28:53.694Z,101438.55
2023-04-07T11:31:23.421Z,101438.52
2023-04-07T11:33:54.394Z,101434.06
2023-04-07T11:36:38.379Z,101433.67
2023-04-07T11:39:19.087Z,101428.71
2023-04-07T11:41:49.664Z,101428.93
2023-04-07T11:44:18.049Z,101421.33
2023-04-07T11:47:00.376Z,101425.71
2023-04-07T11:49:29.425Z,101417.60
2023-04-07T11:52:00.750Z,101419.10
2023-04-07T11:54:46.608Z,101413.50
2023-04-07T11:57:26.150Z,101409.15
2023-04-07T12:00:08.618Z,101407.09
2023-04-07T12:02:38.046Z,101404.23
2023-04-07T12:05:07.128Z,101403.62
2023-04-07T12:07:39.705Z,101396.71
2023-04-07T12:10:24.957Z,101399.88
2023-04-07T12:12:55.266Z,101397.91
2023-04-07T12:15:24.042Z,101396.79
2023-04-07T12:17:54.977Z,101393.27
2023-04-07T12:20:24.490Z,101390.91
2023-04-07T12:22:52.819Z,101390.21
2023-04-07T12:25:21.044Z,101384.71
2023-04-07T12:27:49.381Z,101387.98
2023-04-07T12:30:17.709Z,101382.73
2023-04-07T12:32:46.234Z,101387.52
2023-04-07T12:35:14.500Z,101386.67
2023-04-07T12:37:42.682Z,101383.55
2023-04-07T12:40:11.598Z,101382.14
2023-04-07T12:42:40.101Z,101381.54
2023-04-07T12:45:09.377Z,101381.10
2023-04-07T12:47:37.495Z,101377.26
2023-04-07T12:50:06.950Z,101379.92
2023-04-07T12:52:35.169Z,101371.63
2023-04-07T12:55:03.497Z,101371.38
2023-04-07T12:57:31.646Z,101371.83
2023-04-07T13:00:01.493Z,101371.65
2023-04-07T13:02:30.027Z,101374.32
2023-04-07T13:04:58.799Z,101369.83
2023-04-07T13:07:27.020Z,101368.00
2023-04-07T13:09:55.534Z,101367.86
2023-04-07T13:12:25.409Z,101364.88
2023-04-07T13:15:00.114Z,101359.57
2023-04-07T13:17:29.566Z,101357.23
2023-04-07T13:19:58.308Z,101352.84
2023-04-07T13:22:26.315Z,101350.21
2023-04-07T13:24:55.367Z,101347.92
2023-04-07T13:27:23.691Z,101345.88
2023-04-07T13:29:51.832Z,101341.96
2023-04-07T13:32:20.141Z,101339.25
2023-04-07T13:34:48.220Z,101334.64
2023-04-07T13:37:18.777Z,101330.17
2023-04-07T13:39:47.226Z,101328.58
2023-04-07T13:42:15.700Z,101326.52
2023-04-07T13:44:43.943Z,101318.89
2023-04-07T13:47:12.730Z,101317.80
2023-04-07T13:49:41.663Z,101314.66
2023-04-07T13:52:10.359Z,101320.88
2023-04-07T13:54:38.789Z,101311.74
2023-04-07T13:57:06.962Z,101308.58
2023-04-07T13:59:35.336Z,101309.53
2023-04-07T14:02:04.348Z,101308.80
2023-04-07T14:04:32.977Z,101305.73
2023-04-07T14:07:01.117Z,101302.43
2023-04-07T14:09:29.479Z,101298.70
2023-04-07T14:11:58.575Z,101297.27
2023-04-07T14:14:27.239Z,101295.80
2023-04-07T14:16:55.626Z,101282.79
2023-04-07T14:19:24.903Z,101284.01
2023-04-07T14:21:53.847Z,101279.70
2023-04-07T14:24:22.414Z,101280.17
2023-04-07T14:26:50.779Z,101277.16
2023-04-07T14:29:18.857Z,101273.13
2023-04-07T14:31:47.210Z,101270.30
2023-04-07T14:34:15.721Z,101264.30
2023-04-07T14:36:57.297Z,101259.33
2023-04-07T14:39:25.894Z,101258.55
2023-04-07T14:41:54.171Z,101254.81
2023-04-07T14:44:23.611Z,101251.28
2023-04-07T14:46:51.692Z,101248.27
2023-04-07T14:49:20.723Z,101253.05
2023-04-07T14:51:50.066Z,101248.90
2023-04-07T14:54:18.230Z,101246.80
2023-04-07T14:56:46.320Z,101244.47
2023-04-07T14:59:14.774Z,101239.20
2023-04-07T15:01:43.411Z,101235.16
2023-04-07T15:04:11.708Z,101236.20
2023-04-07T15:06:45.089Z,101231.09
2023-04-07T15:09:14.533Z,101230.56
2023-04-07T15:11:43.180Z,101222.36
2023-04-07T15:14:11.620Z,101217.63
2023-04-07T15:16:39.746Z,101213.98
2023-04-07T15:19:08.558Z,101213.10
2023-04-07T15:21:37.337Z,101213.05
2023-04-07T15:24:06.399Z,101210.84
2023-04-07T15:26:34.768Z,101204.04
2023-04-07T15:29:03.590Z,101210.08
2023-04-07T15:31:32.650Z,101207.59
2023-04-07T15:34:00.765Z,101204.70
2023-04-07T15:36:29.132Z,101208.95
2023-04-07T15:38:59.143Z,101207.34
2023-04-07T15:41:27.217Z,101200.26
2023-04-07T15:43:56.099Z,101194.73
2023-04-07T15:46:25.253Z,101202.43
2023-04-07T15:48:55.628Z,101196.05
2023-04-07T15:51:25.082Z,101199.69
2023-04-07T15:53:54.687Z,101199.69
2023-04-07T15:56:22.840Z,101197.95
2023-04-07T15:58:52.425Z,101195.73
2023-04-07T16:01:21.158Z,101191.52
2023-04-07T16:03:50.839Z,101191.48
2023-04-07T16:06:19.778Z,101192.64
2023-04-07T16:08:48.346Z,101198.13
2023-04-07T16:11:16.673Z,101195.81
2023-04-07T16:13:46.651Z,101195.48
2023-04-07T16:16:15.584Z,101191.98
2023-04-07T16:18:45.509Z,101189.30
2023-04-07T16:21:15.157Z,101190.17
2023-04-07T16:23:43.726Z,101191.09
2023-04-07T16:26:12.364Z,101194.93
2023-04-07T16:28:40.517Z,101196.00
2023-04-07T16:31:09.108Z,101195.66
2023-04-07T16:33:37.552Z,101191.17
2023-04-07T16:36:07.191Z,101195.13
2023-04-07T16:38:35.393Z,101191.17
2023-04-07T16:41:07.922Z,101189.92
2023-04-07T16:43:36.207Z,101191.44
2023-04-07T16:46:05.350Z,101194.70
2023-04-07T16:48:36.034Z,101200.55
2023-04-07T16:51:04.533Z,101200.79
2023-04-07T16:53:33.535Z,101201.23
2023-04-07T16:56:02.168Z,101203.38
2023-04-07T16:58:30.793Z,101203.23
2023-04-07T17:00:59.467Z,101197.61
2023-04-07T17:03:28.484Z,101197.30
2023-04-07T17:05:57.320Z,101199.82
2023-04-07T17:08:27.782Z,101204.68
2023-04-07T17:10:57.225Z,101202.42
2023-04-07T17:13:25.449Z,101206.14
2023-04-07T17:15:54.124Z,101202.48
2023-04-07T17:18:23.118Z,101212.19
2023-04-07T17:20:51.944Z,101208.97
2023-04-07T17:23:20.474Z,101212.38
2023-04-07T17:25:52.114Z,101212.39
2023-04-07T17:28:20.224Z,101212.03
2023-04-07T17:30:49.130Z,101212.94
2023-04-07T17:33:19.067Z,101211.69
2023-04-07T17:35:48.348Z,101208.83
2023-04-07T17:38:16.980Z,101209.38
2023-04-07T17:40:46.027Z,101207.96
2023-04-07T17:43:15.377Z,101206.73
2023-04-07T17:45:43.664Z,101206.21
2023-04-07T17:48:12.481Z,101207.30
2023-04-07T17:50:41.463Z,101205.88
2023-04-07T17:53:10.622Z,101204.11
2023-04-07T17:55:39.706Z,101206.60
2023-04-07T17:58:08.392Z,101202.31
2023-04-07T18:00:37.284Z,101200.34
2023-04-07T18:03:06.063Z,101201.95
2023-04-07T18:05:34.482Z,101201.42
2023-04-07T18:08:03.240Z,101202.63
2023-04-07T18:10:31.935Z,101203.33
2023-04-07T18:13:00.131Z,101197.08
2023-04-07T18:15:29.205Z,101198.15
2023-04-07T18:17:58.592Z,101201.55
2023-04-07T18:20:27.886Z,101206.52
2023-04-07T18:22:56.583Z,101209.38
2023-04-07T18:25:25.534Z,101207.60
2023-04-07T18:27:54.254Z,101209.93
2023-04-07T18:30:22.952Z,101209.75
2023-04-07T18:32:52.652Z,101203.48
2023-04-07T18:35:22.062Z,101200.09
2023-04-07T18:37:50.119Z,101197.37
2023-04-07T18:40:18.510Z,101198.80
2023-04-07T18:42:47.035Z,101197.36
2023-04-07T18:45:15.669Z,101195.72
2023-04-07T18:47:45.695Z,101195.17
2023-04-07T18:50:14.473Z,101200.88
2023-04-07T18:52:42.742Z,101198.52
2023-04-07T18:55:11.692Z,101194.58
2023-04-07T18:57:39.916Z,101192.98
2023-04-07T19:00:09.195Z,101196.90
2023-04-07T19:02:38.443Z,101200.46
2023-04-07T19:05:07.698Z,101205.09
2023-04-07T19:07:36.281Z,101198.41
2023-04-07T19:10:06.454Z,101201.61
2023-04-07T19:12:34.438Z,101209.11
2023-04-07T19:15:02.657Z,101214.52
2023-04-07T19:17:31.656Z,101220.78
2023-04-07T19:20:00.553Z,101226.67
2023-04-07T19:22:29.282Z,101227.94
2023-04-07T19:24:58.528Z,101230.63
2023-04-07T19:27:27.953Z,101230.27
2023-04-07T19:29:57.160Z,101230.30
2023-04-07T19:32:25.446Z,101231.20
2023-04-07T19:34:53.580Z,101231.20
2023-04-07T19:37:22.236Z,101233.50
2023-04-07T19:40:01.561Z,101240.09
2023-04-07T19:42:32.070Z,101240.80
2023-04-07T19:45:00.274Z,101241.34
2023-04-07T19:47:29.896Z,101238.83
2023-04-07T19:49:58.203Z,101240.77
2023-04-07T19:52:26.723Z,101242.20
2023-04-07T19:54:56.108Z,101245.94
2023-04-07T19:57:24.336Z,101253.24
2023-04-07T19:59:53.253Z,101253.77
2023-04-07T20:02:21.751Z,101257.34
2023-04-07T20:04:50.452Z,101260.75
2023-04-07T20:07:19.521Z,101264.15
2023-04-07T20:09:47.784Z,101263.95
2023-04-07T20:12:16.488Z,101266.45
2023-04-07T20:14:46.040Z,101269.09
2023-04-07T20:17:14.089Z,101273.20
2023-04-07T20:19:42.517Z,101271.59
2023-04-07T20:22:12.356Z,101280.16
2023-04-07T20:24:41.368Z,101284.44
2023-04-07T20:27:10.282Z,101289.79
2023-04-07T20:29:39.230Z,101290.33
2023-04-07T20:32:07.903Z,101286.93
2023-04-07T20:34:36.555Z,101289.42
2023-04-07T20:37:05.547Z,101291.36
2023-04-07T20:39:34.665Z,101291.55
2023-04-07T20:42:04.076Z,101295.83
2023-04-07T20:44:32.190Z,101297.96
2023-04-07T20:47:07.507Z,101304.02
2023-04-07T20:49:36.181Z,101305.42
2023-04-07T20:52:06.315Z,101310.95
2023-04-07T20:54:35.287Z,101311.31
2023-04-07T20:57:05.741Z,101308.09
2023-04-07T20:59:34.514Z,101308.45
2023-04-07T21:02:03.347Z,101306.66
2023-04-07T21:04:32.850Z,101308.27
2023-04-07T21:07:01.076Z,101306.13
2023-04-07T21:09:30.298Z,101307.18
2023-04-07T21:12:00.373Z,101305.92
2023-04-07T21:14:28.476Z,101303.24
2023-04-07T21:16:57.415Z,101304.10
2023-04-07T21:19:25.801Z,101306.23
2023-04-07T21:21:54.453Z,101306.41
2023-04-07T21:24:22.561Z,101310.34
2023-04-07T21:26:53.678Z,101310.33
2023-04-07T21:29:22.303Z,101308.90
2023-04-07T21:31:50.669Z,101310.13
2023-04-07T21:34:19.512Z,101310.29
2023-04-07T21:36:48.848Z,101312.08
2023-04-07T21:39:18.385Z,101307.08
2023-04-07T21:41:46.765Z,101310.11
2023-04-07T21:44:15.404Z,101308.64
2023-04-07T21:46:43.777Z,101312.34
2023-04-07T21:49:13.553Z,101312.67
2023-04-07T21:51:41.756Z,101313.55
2023-04-07T21:54:10.179Z,101313.70
2023-04-07T21:56:39.241Z,101320.11
2023-04-07T21:59:07.477Z,101319.56
2023-04-07T22:01:35.776Z,101316.31
2023-04-07T22:04:04.324Z,101319.45
2023-04-07T22:06:32.962Z,101317.95
2023-04-07T22:09:02.238Z,101320.39
2023-04-07T22:11:30.765Z,101319.98
2023-04-07T22:13:59.036Z,101312.65
2023-04-07T22:16:28.358Z,101309.39
2023-04-07T22:18:57.939Z,101301.67
2023-04-07T22:21:26.952Z,101302.17
2023-04-07T22:23:55.576Z,101296.59
2023-04-07T22:26:27.210Z,101295.66
2023-04-07T22:28:56.575Z,101292.23
2023-04-07T22:31:25.404Z,101297.93
2023-04-07T22:33:54.998Z,101294.46
2023-04-07T22:36:23.672Z,101294.59
2023-04-07T22:38:52.617Z,101291.55
2023-04-07T22:41:22.139Z,101294.01
2023-04-07T22:43:50.996Z,101293.74
2023-04-07T22:46:20.464Z,101292.28
2023-04-07T22:48:49.322Z,101293.51
2023-04-07T22:51:18.147Z,101292.58
2023-04-07T22:53:46.684Z,101295.39
2023-04-07T22:56:15.361Z,101295.66
2023-04-07T22:58:44.042Z,101299.52
2023-04-07T23:01:13.091Z,101296.81
2023-04-07T23:03:41.551Z,101296.78
2023-04-07T23:06:10.382Z,101295.45
2023-04-07T23:08:39.575Z,101299.46
2023-04-07T23:11:10.784Z,101295.52
2023-04-07T23:13:40.101Z,101293.09
2023-04-07T23:16:17.790Z,101290.33
2023-04-07T23:18:46.190Z,101292.80
2023-04-07T23:21:14.917Z,101289.17
2023-04-07T23:23:43.037Z,101287.02
2023-04-07T23:26:11.710Z,101285.02
2023-04-07T23:28:39.873Z,101285.36
2023-04-07T23:31:08.375Z,101281.80
2023-04-07T23:33:37.650Z,101281.02
2023-04-07T23:36:06.673Z,101280.09
2023-04-07T23:38:34.930Z,101280.41
2023-04-07T23:41:03.628Z,101280.40
2023-04-07T23:43:33.321Z,101281.27
2023-04-07T23:46:02.575Z,101277.53
2023-04-07T23:48:31.691Z,101275.55
2023-04-07T23:51:00.323Z,101275.13
2023-04-07T23:53:29.137Z,101272.42
2023-04-07T23:55:58.772Z,101274.33
2023-04-07T23:58:27.346Z,101272.71
